createdAt,value
2022-07-27T00:04:47.306Z,2.13
2022-07-27T00:09:49.680Z,2.55
2022-07-27T00:14:52.220Z,2.37
2022-07-27T00:19:54.689Z,2.10
2022-07-27T00:24:56.980Z,2.33
2022-07-27T00:29:59.310Z,2.58
2022-07-27T00:35:01.728Z,2.47
2022-07-27T00:40:05.010Z,2.55
2022-07-27T00:45:07.643Z,2.60
2022-07-27T00:50:10.331Z,2.40
2022-07-27T00:55:12.714Z,2.38
2022-07-27T01:00:15.670Z,2.03
2022-07-27T01:05:18.300Z,2.25
2022-07-27T01:10:20.641Z,2.28
2022-07-27T01:15:23.027Z,2.27
2022-07-27T01:20:25.576Z,2.33
2022-07-27T01:25:27.923Z,2.00
2022-07-27T01:30:35.061Z,2.40
2022-07-27T01:35:38.887Z,2.40
2022-07-27T01:40:41.286Z,2.50
2022-07-27T01:45:43.662Z,2.50
2022-07-27T01:50:47.648Z,3.30
2022-07-27T01:55:50.905Z,3.40
2022-07-27T02:00:53.290Z,2.90
2022-07-27T02:05:55.573Z,2.40
2022-07-27T02:11:16.888Z,2.30
2022-07-27T02:16:19.377Z,2.50
2022-07-27T02:21:22.501Z,2.33
2022-07-27T02:26:24.964Z,2.13
2022-07-27T02:31:27.258Z,2.20
2022-07-27T02:36:35.332Z,2.23
2022-07-27T02:41:37.676Z,2.23
2022-07-27T02:46:40.405Z,2.30
2022-07-27T02:51:42.801Z,1.80
2022-07-27T02:56:45.641Z,2.30
2022-07-27T03:01:48.448Z,2.23
2022-07-27T03:06:50.940Z,2.40
2022-07-27T03:11:53.404Z,2.10
2022-07-27T03:16:55.701Z,2.40
2022-07-27T03:21:57.949Z,2.37
2022-07-27T03:27:00.172Z,2.27
2022-07-27T03:32:02.561Z,2.40
2022-07-27T03:37:05.211Z,2.17
2022-07-27T03:42:07.552Z,2.03
2022-07-27T03:47:09.827Z,2.10
2022-07-27T03:52:17.369Z,2.70
2022-07-27T03:57:20.190Z,2.40
2022-07-27T04:02:22.479Z,2.10
2022-07-27T04:07:24.888Z,2.20
2022-07-27T04:12:27.249Z,1.90
2022-07-27T04:17:54.551Z,1.90
2022-07-27T04:22:51.939Z,1.90
2022-07-27T04:27:56.985Z,2.20
2022-07-27T04:32:59.368Z,2.60
2022-07-27T04:38:01.670Z,2.30
2022-07-27T04:43:04.510Z,2.20
2022-07-27T04:48:07.388Z,2.03
2022-07-27T04:53:10.583Z,1.77
2022-07-27T04:58:13.476Z,2.03
2022-07-27T05:03:15.785Z,1.90
2022-07-27T05:08:18.198Z,2.00
2022-07-27T05:13:20.475Z,2.10
2022-07-27T05:18:23.387Z,1.90
2022-07-27T05:23:25.712Z,1.90
2022-07-27T05:28:28.201Z,2.00
2022-07-27T05:33:30.459Z,2.20
2022-07-27T05:38:39.175Z,1.90
2022-07-27T05:43:41.473Z,2.43
2022-07-27T05:48:43.894Z,1.83
2022-07-27T05:53:46.343Z,2.20
2022-07-27T05:58:48.695Z,2.50
2022-07-27T06:03:51.044Z,1.90
2022-07-27T06:08:54.286Z,1.60
2022-07-27T06:13:56.746Z,1.70
2022-07-27T06:18:59.106Z,1.60
2022-07-27T06:24:01.508Z,1.60
2022-07-27T06:29:09.951Z,1.97
2022-07-27T06:34:13.347Z,2.10
2022-07-27T06:39:17.180Z,1.77
2022-07-27T06:44:19.489Z,1.50
2022-07-27T06:49:22.114Z,1.50
2022-07-27T06:54:24.498Z,1.60
2022-07-27T06:59:26.906Z,1.43
2022-07-27T07:04:46.109Z,1.50
2022-07-27T07:09:48.435Z,1.30
2022-07-27T07:14:50.764Z,1.67
2022-07-27T07:19:53.046Z,1.23
2022-07-27T07:25:00.746Z,1.40
2022-07-27T07:30:05.358Z,1.60
2022-07-27T07:35:08.300Z,1.33
2022-07-27T07:45:34.849Z,1.33
2022-07-27T07:50:37.946Z,1.57
2022-07-27T07:55:40.221Z,1.73
2022-07-27T08:00:43.903Z,1.60
2022-07-27T08:05:46.480Z,1.60
2022-07-27T08:10:49.368Z,1.10
2022-07-27T08:15:52.674Z,1.40
2022-07-27T08:20:55.100Z,1.10
2022-07-27T08:25:57.733Z,1.10
2022-07-27T08:31:01.683Z,1.00
2022-07-27T08:36:17.096Z,0.93
2022-07-27T08:41:20.778Z,1.23
2022-07-27T08:46:26.155Z,1.90
2022-07-27T08:51:30.678Z,1.17
2022-07-27T08:56:33.064Z,1.50
2022-07-27T09:01:35.847Z,1.43
2022-07-27T09:06:41.968Z,1.10
2022-07-27T09:11:45.050Z,1.50
2022-07-27T09:17:43.942Z,1.10
2022-07-27T09:22:09.648Z,1.03
2022-07-27T09:27:11.915Z,1.20
2022-07-27T09:32:17.503Z,1.37
2022-07-27T09:37:24.041Z,1.00
2022-07-27T09:43:05.536Z,1.00
2022-07-27T09:47:49.031Z,1.27
2022-07-27T09:52:51.317Z,1.13
2022-07-27T09:57:55.970Z,1.07
2022-07-27T10:02:58.679Z,1.23
2022-07-27T10:08:01.631Z,1.10
2022-07-27T10:13:05.300Z,1.10
2022-07-27T10:18:10.481Z,1.13
2022-07-27T10:23:26.577Z,1.30
2022-07-27T10:28:29.814Z,1.07
2022-07-27T10:33:42.233Z,1.40
2022-07-27T10:38:45.619Z,1.40
2022-07-27T10:43:50.424Z,1.40
2022-07-27T10:48:52.706Z,1.63
2022-07-27T10:54:12.005Z,1.50
2022-07-27T10:59:14.709Z,1.53
2022-07-27T11:04:17.391Z,1.17
2022-07-27T11:14:45.713Z,1.40
2022-07-27T11:20:01.241Z,1.90
2022-07-27T11:25:04.073Z,1.40
2022-07-27T11:30:20.767Z,1.50
2022-07-27T11:35:23.345Z,1.60
2022-07-27T11:40:56.549Z,2.00
2022-07-27T11:45:48.205Z,1.50
2022-07-27T11:51:00.225Z,1.30
2022-07-27T11:56:02.590Z,1.20
2022-07-27T12:01:05.612Z,1.00
2022-07-27T12:06:09.236Z,1.03
2022-07-27T12:11:11.863Z,1.00
2022-07-27T12:16:18.611Z,1.40
2022-07-27T12:21:21.308Z,1.50
2022-07-27T12:26:25.464Z,1.70
2022-07-27T12:31:33.109Z,1.03
2022-07-27T12:36:40.520Z,2.53
2022-07-27T12:41:42.870Z,0.93
2022-07-27T12:47:02.366Z,1.70
2022-07-27T12:52:05.908Z,1.30
2022-07-27T12:57:08.187Z,1.43
2022-07-27T13:02:10.655Z,1.37
2022-07-27T13:07:13.047Z,1.50
2022-07-27T13:12:15.653Z,1.40
2022-07-27T13:17:18.102Z,1.50
2022-07-27T13:22:20.579Z,1.50
2022-07-27T13:27:23.034Z,1.27
2022-07-27T13:32:26.534Z,1.30
2022-07-27T13:37:28.830Z,1.73
2022-07-27T13:42:31.339Z,1.60
2022-07-27T13:47:34.808Z,1.65
2022-07-27T13:52:37.362Z,1.60
2022-07-27T13:57:39.823Z,1.60
2022-07-27T14:02:42.497Z,1.03
2022-07-27T14:07:45.017Z,1.30
2022-07-27T14:12:47.469Z,1.27
2022-07-27T14:17:50.118Z,1.13
2022-07-27T14:22:52.426Z,1.20
2022-07-27T14:27:54.839Z,1.10
2022-07-27T14:32:58.396Z,1.50
2022-07-27T14:38:02.016Z,1.30
2022-07-27T14:43:05.038Z,1.13
2022-07-27T14:48:07.395Z,1.50
2022-07-27T14:53:10.504Z,1.20
2022-07-27T14:58:12.816Z,1.57
2022-07-27T15:03:15.459Z,1.23
2022-07-27T15:08:20.667Z,1.13
2022-07-27T15:13:23.128Z,1.77
2022-07-27T15:18:25.724Z,1.47
2022-07-27T15:23:27.992Z,1.47
2022-07-27T15:28:34.402Z,1.30
2022-07-27T15:33:36.861Z,1.03
2022-07-27T15:38:39.276Z,1.13
2022-07-27T15:43:41.562Z,1.23
2022-07-27T15:48:43.940Z,1.50
2022-07-27T15:53:46.389Z,1.27
2022-07-27T15:58:48.655Z,1.90
2022-07-27T16:03:52.236Z,1.42
2022-07-27T16:08:54.622Z,1.40
2022-07-27T16:13:57.509Z,1.38
2022-07-27T16:19:13.124Z,1.30
2022-07-27T16:24:16.402Z,1.30
2022-07-27T16:29:18.741Z,1.30
2022-07-27T16:34:21.179Z,1.20
2022-07-27T16:39:23.682Z,1.53
2022-07-27T16:44:26.195Z,1.40
2022-07-27T16:49:33.700Z,1.30
2022-07-27T16:54:39.996Z,1.70
2022-07-27T16:59:43.439Z,1.70
2022-07-27T17:04:46.228Z,1.70
2022-07-27T17:09:48.799Z,2.00
2022-07-27T17:14:51.263Z,1.40
2022-07-27T17:19:53.614Z,1.53
2022-07-27T17:24:56.234Z,2.00
2022-07-27T17:29:58.605Z,1.70
2022-07-27T17:35:01.079Z,2.00
2022-07-27T17:40:03.815Z,1.90
2022-07-27T17:45:06.653Z,2.50
2022-07-27T17:50:09.193Z,2.10
2022-07-27T17:55:11.723Z,2.20
2022-07-27T18:00:14.494Z,2.03
2022-07-27T18:05:16.845Z,1.90
2022-07-27T18:10:19.288Z,1.80
2022-07-27T18:15:40.340Z,3.00
2022-07-27T18:20:43.642Z,2.05
2022-07-27T18:25:46.545Z,1.80
2022-07-27T18:30:49.736Z,1.73
2022-07-27T18:35:52.343Z,2.70
2022-07-27T18:40:56.482Z,1.95
2022-07-27T18:45:58.956Z,2.38
2022-07-27T18:51:01.548Z,1.85
2022-07-27T18:56:03.989Z,2.20
2022-07-27T19:01:06.772Z,2.10
2022-07-27T19:06:09.518Z,3.10
2022-07-27T19:11:12.197Z,2.35
2022-07-27T19:16:14.609Z,2.93
2022-07-27T19:21:17.108Z,2.75
2022-07-27T19:26:19.596Z,2.77
2022-07-27T19:31:23.799Z,2.60
2022-07-27T19:36:26.476Z,2.42
2022-07-27T19:41:28.876Z,2.30
2022-07-27T19:46:31.495Z,2.30
2022-07-27T19:51:33.979Z,2.50
2022-07-27T19:56:37.569Z,2.93
2022-07-27T20:01:40.086Z,3.00
2022-07-27T20:06:42.416Z,2.80
2022-07-27T20:11:45.288Z,2.50
2022-07-27T20:16:48.212Z,2.80
2022-07-27T20:21:50.627Z,2.80
2022-07-27T20:26:53.112Z,2.55
2022-07-27T20:31:56.164Z,2.70
2022-07-27T20:37:00.491Z,2.60
2022-07-27T20:42:02.876Z,2.40
2022-07-27T20:47:06.446Z,2.20
2022-07-27T20:52:08.800Z,2.60
2022-07-27T20:57:11.187Z,2.20
2022-07-27T21:02:14.022Z,2.60
2022-07-27T21:07:16.480Z,2.60
2022-07-27T21:12:19.073Z,2.63
2022-07-27T21:17:21.483Z,2.17
2022-07-27T21:22:23.808Z,2.00
2022-07-27T21:27:26.108Z,2.10
2022-07-27T21:32:29.070Z,2.20
2022-07-27T21:37:31.524Z,2.25
2022-07-27T21:42:34.214Z,2.42
2022-07-27T21:47:36.903Z,2.05
2022-07-27T21:52:39.314Z,2.22
2022-07-27T21:57:41.712Z,2.40
2022-07-27T22:02:44.076Z,1.90
2022-07-27T22:07:46.500Z,2.30
2022-07-27T22:12:48.844Z,2.22
2022-07-27T22:17:51.579Z,2.00
2022-07-27T22:22:54.244Z,2.20
2022-07-27T22:27:56.733Z,2.22
2022-07-27T22:33:00.125Z,2.05
2022-07-27T22:38:02.520Z,2.00
2022-07-27T22:43:04.869Z,2.30
2022-07-27T22:48:07.327Z,2.10
2022-07-27T22:53:09.608Z,2.10
2022-07-27T22:58:11.993Z,2.33
2022-07-27T23:03:14.506Z,2.22
2022-07-27T23:08:16.778Z,2.50
2022-07-27T23:13:19.896Z,2.40
2022-07-27T23:18:25.749Z,2.08
2022-07-27T23:23:28.016Z,2.28
2022-07-27T23:28:35.700Z,1.98
2022-07-27T23:33:38.009Z,2.20
2022-07-27T23:38:40.587Z,1.90
2022-07-27T23:43:42.961Z,2.10
2022-07-27T23:48:45.238Z,2.15
2022-07-27T23:53:48.103Z,2.03
2022-07-27T23:58:50.385Z,2.20
